Homer, New York
Current Conditions -  °F | °C
As of 9:35 AM on Sunday 25 Jan 2015 (Local Time) from KN03 Reporting Station
Overcast Overcast  
Wind Chill: 11°   Ceiling: 2600
Heat Index: 21°   Visibility: 10mi
Dew Point: 14°   Wind: 9mph
Humidity: 74%   Direction: 280°W
Pressure: 29.78"   Gusts: 16mph
Location:  42.64°N, 76.18°W
Report Text: KN03 251435Z AUTO 28008G14KT 248V308 10SM OVC026 M06/M10 A2978 RMK AO2
Loading
Personal Weather Stations






























Interactive Weather Map New forecast layout! Learn more

10-Day Weather Forecast

Advertisements
Track Severe Weather on mobile